sensor_id;sensor_type;location;lat;lon;timestamp;P1;durP1;ratioP1;P2;durP2;ratioP2
22963;SDS011;11648;49.306;6.934;2023-03-03T00:00:05;44.13;;;26.07;;
22963;SDS011;11648;49.306;6.934;2023-03-03T00:02:41;49.07;;;25.97;;
22963;SDS011;11648;49.306;6.934;2023-03-03T00:05:08;45.00;;;26.90;;
22963;SDS011;11648;49.306;6.934;2023-03-03T00:07:35;54.33;;;30.20;;
22963;SDS011;11648;49.306;6.934;2023-03-03T00:10:02;48.57;;;28.37;;
22963;SDS011;11648;49.306;6.934;2023-03-03T00:12:29;51.17;;;30.17;;
22963;SDS011;11648;49.306;6.934;2023-03-03T00:14:56;48.20;;;28.50;;
22963;SDS011;11648;49.306;6.934;2023-03-03T00:17:24;45.60;;;26.73;;
22963;SDS011;11648;49.306;6.934;2023-03-03T00:19:52;47.00;;;25.93;;
22963;SDS011;11648;49.306;6.934;2023-03-03T00:22:30;46.73;;;25.47;;
22963;SDS011;11648;49.306;6.934;2023-03-03T00:25:24;48.50;;;27.27;;
22963;SDS011;11648;49.306;6.934;2023-03-03T00:27:55;49.37;;;27.13;;
22963;SDS011;11648;49.306;6.934;2023-03-03T00:30:27;47.13;;;27.27;;
22963;SDS011;11648;49.306;6.934;2023-03-03T00:32:54;46.77;;;26.97;;
22963;SDS011;11648;49.306;6.934;2023-03-03T00:40:35;48.20;;;26.97;;
22963;SDS011;11648;49.306;6.934;2023-03-03T00:45:50;46.53;;;27.17;;
22963;SDS011;11648;49.306;6.934;2023-03-03T00:50:45;49.97;;;26.93;;
22963;SDS011;11648;49.306;6.934;2023-03-03T00:53:15;43.23;;;25.93;;
22963;SDS011;11648;49.306;6.934;2023-03-03T00:55:44;43.77;;;24.47;;
22963;SDS011;11648;49.306;6.934;2023-03-03T00:58:13;45.20;;;26.07;;
22963;SDS011;11648;49.306;6.934;2023-03-03T01:00:43;44.90;;;27.10;;
22963;SDS011;11648;49.306;6.934;2023-03-03T01:03:22;47.57;;;27.00;;
22963;SDS011;11648;49.306;6.934;2023-03-03T01:05:51;45.93;;;27.33;;
22963;SDS011;11648;49.306;6.934;2023-03-03T01:08:18;46.63;;;26.20;;
22963;SDS011;11648;49.306;6.934;2023-03-03T01:10:53;46.73;;;27.57;;
22963;SDS011;11648;49.306;6.934;2023-03-03T01:13:24;49.53;;;28.67;;
22963;SDS011;11648;49.306;6.934;2023-03-03T01:15:53;46.60;;;27.07;;
22963;SDS011;11648;49.306;6.934;2023-03-03T01:18:20;44.07;;;26.37;;
22963;SDS011;11648;49.306;6.934;2023-03-03T01:20:47;47.57;;;26.77;;
22963;SDS011;11648;49.306;6.934;2023-03-03T01:23:13;43.03;;;25.77;;
22963;SDS011;11648;49.306;6.934;2023-03-03T01:25:40;43.33;;;25.40;;
22963;SDS011;11648;49.306;6.934;2023-03-03T01:28:07;52.27;;;28.53;;
22963;SDS011;11648;49.306;6.934;2023-03-03T01:30:34;53.27;;;27.93;;
22963;SDS011;11648;49.306;6.934;2023-03-03T01:33:00;51.50;;;27.17;;
22963;SDS011;11648;49.306;6.934;2023-03-03T01:35:27;53.30;;;28.40;;
22963;SDS011;11648;49.306;6.934;2023-03-03T01:37:55;51.20;;;28.87;;
22963;SDS011;11648;49.306;6.934;2023-03-03T01:40:23;54.67;;;28.63;;
22963;SDS011;11648;49.306;6.934;2023-03-03T01:42:52;48.37;;;27.50;;
22963;SDS011;11648;49.306;6.934;2023-03-03T01:53:08;46.80;;;26.80;;
22963;SDS011;11648;49.306;6.934;2023-03-03T01:55:39;47.77;;;26.53;;
22963;SDS011;11648;49.306;6.934;2023-03-03T01:58:08;48.40;;;27.33;;
22963;SDS011;11648;49.306;6.934;2023-03-03T02:00:40;50.03;;;27.93;;
22963;SDS011;11648;49.306;6.934;2023-03-03T02:03:10;46.47;;;26.53;;
22963;SDS011;11648;49.306;6.934;2023-03-03T02:05:37;49.87;;;27.50;;
22963;SDS011;11648;49.306;6.934;2023-03-03T02:08:08;51.73;;;29.23;;
22963;SDS011;11648;49.306;6.934;2023-03-03T02:10:42;54.83;;;29.47;;
22963;SDS011;11648;49.306;6.934;2023-03-03T02:13:10;50.63;;;27.93;;
22963;SDS011;11648;49.306;6.934;2023-03-03T02:15:37;47.93;;;26.87;;
22963;SDS011;11648;49.306;6.934;2023-03-03T02:18:11;50.37;;;27.57;;
22963;SDS011;11648;49.306;6.934;2023-03-03T02:20:52;51.63;;;27.60;;
22963;SDS011;11648;49.306;6.934;2023-03-03T02:26:09;44.47;;;25.90;;
22963;SDS011;11648;49.306;6.934;2023-03-03T02:28:38;47.77;;;25.53;;
22963;SDS011;11648;49.306;6.934;2023-03-03T02:31:09;45.50;;;25.03;;
22963;SDS011;11648;49.306;6.934;2023-03-03T02:33:40;44.03;;;25.00;;
22963;SDS011;11648;49.306;6.934;2023-03-03T02:36:15;46.33;;;24.83;;
22963;SDS011;11648;49.306;6.934;2023-03-03T02:38:47;45.17;;;25.40;;
22963;SDS011;11648;49.306;6.934;2023-03-03T02:41:37;49.80;;;25.80;;
22963;SDS011;11648;49.306;6.934;2023-03-03T02:44:13;49.97;;;27.20;;
22963;SDS011;11648;49.306;6.934;2023-03-03T02:46:46;50.83;;;27.57;;
22963;SDS011;11648;49.306;6.934;2023-03-03T02:49:16;47.37;;;27.80;;
22963;SDS011;11648;49.306;6.934;2023-03-03T02:51:45;47.97;;;26.10;;
22963;SDS011;11648;49.306;6.934;2023-03-03T02:54:12;42.03;;;23.80;;
22963;SDS011;11648;49.306;6.934;2023-03-03T02:56:40;43.13;;;22.67;;
22963;SDS011;11648;49.306;6.934;2023-03-03T02:59:07;38.97;;;22.40;;
22963;SDS011;11648;49.306;6.934;2023-03-03T03:01:39;44.87;;;22.67;;
22963;SDS011;11648;49.306;6.934;2023-03-03T03:04:11;39.23;;;22.83;;
22963;SDS011;11648;49.306;6.934;2023-03-03T03:06:43;37.53;;;21.60;;
22963;SDS011;11648;49.306;6.934;2023-03-03T03:09:12;37.13;;;20.60;;
22963;SDS011;11648;49.306;6.934;2023-03-03T03:11:39;36.53;;;20.77;;
22963;SDS011;11648;49.306;6.934;2023-03-03T03:14:08;37.37;;;20.60;;
22963;SDS011;11648;49.306;6.934;2023-03-03T03:16:38;35.07;;;19.50;;
22963;SDS011;11648;49.306;6.934;2023-03-03T03:19:05;31.27;;;19.13;;
22963;SDS011;11648;49.306;6.934;2023-03-03T03:21:33;37.67;;;20.83;;
22963;SDS011;11648;49.306;6.934;2023-03-03T03:24:01;37.97;;;19.77;;
22963;SDS011;11648;49.306;6.934;2023-03-03T03:26:28;37.07;;;20.63;;
22963;SDS011;11648;49.306;6.934;2023-03-03T03:28:55;33.50;;;19.73;;
22963;SDS011;11648;49.306;6.934;2023-03-03T03:31:22;32.80;;;19.53;;
22963;SDS011;11648;49.306;6.934;2023-03-03T03:33:48;30.13;;;16.57;;
22963;SDS011;11648;49.306;6.934;2023-03-03T03:36:15;29.03;;;16.73;;
22963;SDS011;11648;49.306;6.934;2023-03-03T03:38:43;30.13;;;17.77;;
22963;SDS011;11648;49.306;6.934;2023-03-03T03:41:10;35.33;;;20.40;;
22963;SDS011;11648;49.306;6.934;2023-03-03T03:43:38;32.90;;;19.30;;
22963;SDS011;11648;49.306;6.934;2023-03-03T03:46:05;33.13;;;17.83;;
22963;SDS011;11648;49.306;6.934;2023-03-03T03:48:33;29.70;;;16.73;;
22963;SDS011;11648;49.306;6.934;2023-03-03T03:51:02;19.50;;;11.93;;
22963;SDS011;11648;49.306;6.934;2023-03-03T03:53:30;20.67;;;11.60;;
22963;SDS011;11648;49.306;6.934;2023-03-03T03:55:57;20.20;;;12.37;;
22963;SDS011;11648;49.306;6.934;2023-03-03T03:58:24;22.07;;;12.67;;
22963;SDS011;11648;49.306;6.934;2023-03-03T04:01:00;20.47;;;11.83;;
22963;SDS011;11648;49.306;6.934;2023-03-03T04:03:29;21.47;;;12.37;;
22963;SDS011;11648;49.306;6.934;2023-03-03T04:05:56;22.13;;;11.30;;
22963;SDS011;11648;49.306;6.934;2023-03-03T04:08:23;19.33;;;11.63;;
22963;SDS011;11648;49.306;6.934;2023-03-03T04:10:50;21.20;;;12.00;;
22963;SDS011;11648;49.306;6.934;2023-03-03T04:13:17;23.47;;;13.23;;
22963;SDS011;11648;49.306;6.934;2023-03-03T04:15:44;26.53;;;16.57;;
22963;SDS011;11648;49.306;6.934;2023-03-03T04:18:10;32.77;;;17.17;;
22963;SDS011;11648;49.306;6.934;2023-03-03T04:20:38;30.80;;;17.17;;
22963;SDS011;11648;49.306;6.934;2023-03-03T04:23:06;33.50;;;18.37;;
22963;SDS011;11648;49.306;6.934;2023-03-03T04:25:33;29.57;;;17.63;;
22963;SDS011;11648;49.306;6.934;2023-03-03T04:28:00;34.07;;;18.77;;
22963;SDS011;11648;49.306;6.934;2023-03-03T04:30:31;26.93;;;15.90;;
22963;SDS011;11648;49.306;6.934;2023-03-03T04:32:58;30.50;;;16.80;;
22963;SDS011;11648;49.306;6.934;2023-03-03T04:35:26;28.90;;;16.53;;
22963;SDS011;11648;49.306;6.934;2023-03-03T04:37:53;30.07;;;16.17;;
22963;SDS011;11648;49.306;6.934;2023-03-03T04:40:19;27.57;;;15.90;;
22963;SDS011;11648;49.306;6.934;2023-03-03T04:42:48;29.87;;;16.33;;
22963;SDS011;11648;49.306;6.934;2023-03-03T04:45:15;30.00;;;16.53;;
22963;SDS011;11648;49.306;6.934;2023-03-03T04:47:44;31.70;;;18.50;;
22963;SDS011;11648;49.306;6.934;2023-03-03T04:50:11;29.57;;;17.77;;
22963;SDS011;11648;49.306;6.934;2023-03-03T04:52:39;31.07;;;17.10;;
22963;SDS011;11648;49.306;6.934;2023-03-03T04:55:07;29.90;;;16.57;;
22963;SDS011;11648;49.306;6.934;2023-03-03T04:57:37;27.50;;;15.43;;
22963;SDS011;11648;49.306;6.934;2023-03-03T05:00:04;25.07;;;15.00;;
22963;SDS011;11648;49.306;6.934;2023-03-03T05:02:32;25.23;;;14.43;;
22963;SDS011;11648;49.306;6.934;2023-03-03T05:04:59;22.90;;;13.40;;
22963;SDS011;11648;49.306;6.934;2023-03-03T05:07:26;25.00;;;13.40;;
22963;SDS011;11648;49.306;6.934;2023-03-03T05:09:52;26.93;;;14.77;;
22963;SDS011;11648;49.306;6.934;2023-03-03T05:12:19;25.83;;;14.73;;
22963;SDS011;11648;49.306;6.934;2023-03-03T05:14:46;26.13;;;14.93;;
22963;SDS011;11648;49.306;6.934;2023-03-03T05:17:13;30.20;;;16.43;;
22963;SDS011;11648;49.306;6.934;2023-03-03T05:19:40;27.53;;;15.53;;
22963;SDS011;11648;49.306;6.934;2023-03-03T05:22:07;26.83;;;15.17;;
22963;SDS011;11648;49.306;6.934;2023-03-03T05:24:33;27.23;;;15.27;;
22963;SDS011;11648;49.306;6.934;2023-03-03T05:27:00;24.30;;;14.43;;
22963;SDS011;11648;49.306;6.934;2023-03-03T05:29:28;25.63;;;14.33;;
22963;SDS011;11648;49.306;6.934;2023-03-03T05:31:57;17.90;;;10.77;;
22963;SDS011;11648;49.306;6.934;2023-03-03T05:34:24;20.07;;;11.87;;
22963;SDS011;11648;49.306;6.934;2023-03-03T05:36:50;20.03;;;11.67;;
22963;SDS011;11648;49.306;6.934;2023-03-03T05:39:17;19.73;;;10.73;;
22963;SDS011;11648;49.306;6.934;2023-03-03T05:41:44;21.43;;;11.93;;
22963;SDS011;11648;49.306;6.934;2023-03-03T05:44:10;24.30;;;13.80;;
22963;SDS011;11648;49.306;6.934;2023-03-03T05:46:38;24.07;;;13.80;;
22963;SDS011;11648;49.306;6.934;2023-03-03T05:49:05;25.83;;;13.73;;
22963;SDS011;11648;49.306;6.934;2023-03-03T05:51:31;22.87;;;13.20;;
22963;SDS011;11648;49.306;6.934;2023-03-03T05:54:01;22.20;;;13.03;;
22963;SDS011;11648;49.306;6.934;2023-03-03T05:56:28;21.53;;;12.13;;
22963;SDS011;11648;49.306;6.934;2023-03-03T05:58:54;19.17;;;11.07;;
22963;SDS011;11648;49.306;6.934;2023-03-03T06:01:21;19.70;;;11.57;;
22963;SDS011;11648;49.306;6.934;2023-03-03T06:03:48;21.53;;;11.60;;
22963;SDS011;11648;49.306;6.934;2023-03-03T06:06:15;19.40;;;11.27;;
22963;SDS011;11648;49.306;6.934;2023-03-03T06:08:42;23.00;;;12.47;;
22963;SDS011;11648;49.306;6.934;2023-03-03T06:11:09;21.20;;;12.07;;
22963;SDS011;11648;49.306;6.934;2023-03-03T06:13:36;23.17;;;12.53;;
22963;SDS011;11648;49.306;6.934;2023-03-03T06:16:02;22.00;;;13.20;;
22963;SDS011;11648;49.306;6.934;2023-03-03T06:18:29;23.17;;;12.93;;
22963;SDS011;11648;49.306;6.934;2023-03-03T06:20:56;22.13;;;12.93;;
22963;SDS011;11648;49.306;6.934;2023-03-03T06:23:22;21.57;;;12.93;;
22963;SDS011;11648;49.306;6.934;2023-03-03T06:25:49;22.57;;;13.43;;
22963;SDS011;11648;49.306;6.934;2023-03-03T06:28:16;21.37;;;12.43;;
22963;SDS011;11648;49.306;6.934;2023-03-03T06:30:42;20.40;;;12.37;;
22963;SDS011;11648;49.306;6.934;2023-03-03T06:33:09;16.27;;;10.47;;
22963;SDS011;11648;49.306;6.934;2023-03-03T06:35:36;22.60;;;11.90;;
22963;SDS011;11648;49.306;6.934;2023-03-03T06:38:05;19.53;;;11.53;;
22963;SDS011;11648;49.306;6.934;2023-03-03T06:40:32;18.33;;;11.27;;
22963;SDS011;11648;49.306;6.934;2023-03-03T06:42:58;19.60;;;11.53;;
22963;SDS011;11648;49.306;6.934;2023-03-03T06:45:27;20.40;;;12.43;;
22963;SDS011;11648;49.306;6.934;2023-03-03T06:47:54;19.53;;;12.03;;
22963;SDS011;11648;49.306;6.934;2023-03-03T06:50:21;18.03;;;10.27;;
22963;SDS011;11648;49.306;6.934;2023-03-03T06:52:48;17.77;;;10.20;;
22963;SDS011;11648;49.306;6.934;2023-03-03T06:55:20;16.70;;;9.57;;
22963;SDS011;11648;49.306;6.934;2023-03-03T06:57:48;15.97;;;9.63;;
22963;SDS011;11648;49.306;6.934;2023-03-03T07:00:16;16.10;;;9.37;;
22963;SDS011;11648;49.306;6.934;2023-03-03T07:03:00;16.07;;;9.40;;
22963;SDS011;11648;49.306;6.934;2023-03-03T07:05:33;15.37;;;9.83;;
22963;SDS011;11648;49.306;6.934;2023-03-03T07:08:00;20.07;;;11.17;;
22963;SDS011;11648;49.306;6.934;2023-03-03T07:10:27;24.40;;;12.77;;
22963;SDS011;11648;49.306;6.934;2023-03-03T07:12:57;24.93;;;13.33;;
22963;SDS011;11648;49.306;6.934;2023-03-03T07:15:33;23.37;;;13.57;;
22963;SDS011;11648;49.306;6.934;2023-03-03T07:18:00;23.33;;;13.17;;
22963;SDS011;11648;49.306;6.934;2023-03-03T07:20:35;18.70;;;10.60;;
22963;SDS011;11648;49.306;6.934;2023-03-03T07:23:38;16.27;;;9.50;;
22963;SDS011;11648;49.306;6.934;2023-03-03T07:26:09;16.37;;;10.07;;
22963;SDS011;11648;49.306;6.934;2023-03-03T07:28:52;16.83;;;10.20;;
22963;SDS011;11648;49.306;6.934;2023-03-03T07:31:28;15.93;;;10.33;;
22963;SDS011;11648;49.306;6.934;2023-03-03T07:34:13;16.60;;;10.70;;
22963;SDS011;11648;49.306;6.934;2023-03-03T07:37:05;16.57;;;10.83;;
22963;SDS011;11648;49.306;6.934;2023-03-03T07:39:39;19.60;;;11.80;;
22963;SDS011;11648;49.306;6.934;2023-03-03T07:42:25;16.97;;;11.73;;
22963;SDS011;11648;49.306;6.934;2023-03-03T07:45:19;17.87;;;12.53;;
22963;SDS011;11648;49.306;6.934;2023-03-03T07:48:18;18.00;;;12.87;;
22963;SDS011;11648;49.306;6.934;2023-03-03T07:50:50;17.40;;;11.87;;
22963;SDS011;11648;49.306;6.934;2023-03-03T07:53:24;19.50;;;13.63;;
22963;SDS011;11648;49.306;6.934;2023-03-03T07:55:51;16.93;;;12.93;;
22963;SDS011;11648;49.306;6.934;2023-03-03T07:58:20;15.53;;;12.63;;
22963;SDS011;11648;49.306;6.934;2023-03-03T08:04:01;16.37;;;12.83;;
22963;SDS011;11648;49.306;6.934;2023-03-03T08:11:46;18.40;;;13.63;;
22963;SDS011;11648;49.306;6.934;2023-03-03T08:14:19;19.17;;;15.30;;
22963;SDS011;11648;49.306;6.934;2023-03-03T08:16:53;17.67;;;14.60;;
22963;SDS011;11648;49.306;6.934;2023-03-03T08:19:21;16.23;;;13.23;;
22963;SDS011;11648;49.306;6.934;2023-03-03T08:21:48;17.27;;;13.13;;
22963;SDS011;11648;49.306;6.934;2023-03-03T08:24:15;20.23;;;14.07;;
22963;SDS011;11648;49.306;6.934;2023-03-03T08:26:42;15.07;;;12.77;;
22963;SDS011;11648;49.306;6.934;2023-03-03T08:29:09;15.73;;;12.53;;
22963;SDS011;11648;49.306;6.934;2023-03-03T08:31:37;15.27;;;12.03;;
22963;SDS011;11648;49.306;6.934;2023-03-03T08:34:07;13.65;;;11.70;;
22963;SDS011;11648;49.306;6.934;2023-03-03T08:36:34;13.52;;;11.80;;
22963;SDS011;11648;49.306;6.934;2023-03-03T08:39:01;13.85;;;11.75;;
22963;SDS011;11648;49.306;6.934;2023-03-03T08:41:29;17.10;;;11.45;;
22963;SDS011;11648;49.306;6.934;2023-03-03T08:43:56;13.95;;;11.43;;
22963;SDS011;11648;49.306;6.934;2023-03-03T08:46:22;13.00;;;10.75;;
22963;SDS011;11648;49.306;6.934;2023-03-03T08:48:49;13.57;;;10.85;;
22963;SDS011;11648;49.306;6.934;2023-03-03T08:51:16;13.57;;;11.00;;
22963;SDS011;11648;49.306;6.934;2023-03-03T08:53:43;14.68;;;11.88;;
22963;SDS011;11648;49.306;6.934;2023-03-03T08:56:10;15.88;;;11.75;;
22963;SDS011;11648;49.306;6.934;2023-03-03T08:58:36;12.93;;;11.55;;
22963;SDS011;11648;49.306;6.934;2023-03-03T09:01:10;13.20;;;11.80;;
22963;SDS011;11648;49.306;6.934;2023-03-03T09:03:37;13.43;;;11.95;;
22963;SDS011;11648;49.306;6.934;2023-03-03T09:06:03;14.65;;;12.07;;
22963;SDS011;11648;49.306;6.934;2023-03-03T09:08:30;13.15;;;10.98;;
22963;SDS011;11648;49.306;6.934;2023-03-03T09:10:57;12.82;;;11.50;;
22963;SDS011;11648;49.306;6.934;2023-03-03T09:13:24;13.38;;;12.05;;
22963;SDS011;11648;49.306;6.934;2023-03-03T09:15:52;13.00;;;11.60;;
22963;SDS011;11648;49.306;6.934;2023-03-03T09:18:20;13.73;;;12.20;;
22963;SDS011;11648;49.306;6.934;2023-03-03T09:20:52;13.60;;;12.20;;
22963;SDS011;11648;49.306;6.934;2023-03-03T09:25:50;14.43;;;11.90;;
22963;SDS011;11648;49.306;6.934;2023-03-03T09:28:20;13.43;;;11.90;;
22963;SDS011;11648;49.306;6.934;2023-03-03T09:30:48;13.65;;;12.35;;
22963;SDS011;11648;49.306;6.934;2023-03-03T09:35:50;13.63;;;12.20;;
22963;SDS011;11648;49.306;6.934;2023-03-03T09:38:32;13.88;;;11.95;;
22963;SDS011;11648;49.306;6.934;2023-03-03T09:44:00;13.90;;;12.50;;
22963;SDS011;11648;49.306;6.934;2023-03-03T09:49:31;14.35;;;12.80;;
22963;SDS011;11648;49.306;6.934;2023-03-03T09:54:52;16.20;;;13.70;;
22963;SDS011;11648;49.306;6.934;2023-03-03T09:57:37;14.60;;;13.20;;
22963;SDS011;11648;49.306;6.934;2023-03-03T10:00:19;14.77;;;13.38;;
22963;SDS011;11648;49.306;6.934;2023-03-03T10:11:17;14.27;;;12.77;;
22963;SDS011;11648;49.306;6.934;2023-03-03T10:24:45;16.55;;;14.57;;
22963;SDS011;11648;49.306;6.934;2023-03-03T10:32:45;16.02;;;14.43;;
22963;SDS011;11648;49.306;6.934;2023-03-03T10:41:27;16.48;;;14.88;;
22963;SDS011;11648;49.306;6.934;2023-03-03T11:08:51;17.02;;;15.43;;
22963;SDS011;11648;49.306;6.934;2023-03-03T11:14:12;17.15;;;15.43;;
22963;SDS011;11648;49.306;6.934;2023-03-03T11:17:23;17.88;;;16.17;;
22963;SDS011;11648;49.306;6.934;2023-03-03T11:20:07;17.42;;;15.48;;
22963;SDS011;11648;49.306;6.934;2023-03-03T11:25:53;17.60;;;15.95;;
22963;SDS011;11648;49.306;6.934;2023-03-03T11:33:35;18.73;;;16.95;;
22963;SDS011;11648;49.306;6.934;2023-03-03T11:38:45;19.02;;;17.02;;
22963;SDS011;11648;49.306;6.934;2023-03-03T11:43:59;18.85;;;16.85;;
22963;SDS011;11648;49.306;6.934;2023-03-03T11:46:43;18.63;;;16.83;;
22963;SDS011;11648;49.306;6.934;2023-03-03T11:59:57;17.77;;;15.88;;
22963;SDS011;11648;49.306;6.934;2023-03-03T12:11:42;17.67;;;15.50;;
22963;SDS011;11648;49.306;6.934;2023-03-03T12:14:26;17.55;;;15.52;;
22963;SDS011;11648;49.306;6.934;2023-03-03T12:17:06;17.65;;;15.77;;
22963;SDS011;11648;49.306;6.934;2023-03-03T12:19:45;17.75;;;15.68;;
22963;SDS011;11648;49.306;6.934;2023-03-03T12:22:33;19.23;;;16.23;;
22963;SDS011;11648;49.306;6.934;2023-03-03T12:45:13;20.15;;;14.88;;
22963;SDS011;11648;49.306;6.934;2023-03-03T12:47:50;18.63;;;13.93;;
22963;SDS011;11648;49.306;6.934;2023-03-03T12:50:24;19.07;;;13.93;;
22963;SDS011;11648;49.306;6.934;2023-03-03T12:55:52;18.87;;;13.43;;
22963;SDS011;11648;49.306;6.934;2023-03-03T12:58:41;18.87;;;13.03;;
22963;SDS011;11648;49.306;6.934;2023-03-03T13:01:18;19.40;;;12.80;;
22963;SDS011;11648;49.306;6.934;2023-03-03T13:03:58;17.50;;;12.07;;
22963;SDS011;11648;49.306;6.934;2023-03-03T13:06:44;19.10;;;12.10;;
22963;SDS011;11648;49.306;6.934;2023-03-03T13:12:06;18.37;;;12.93;;
22963;SDS011;11648;49.306;6.934;2023-03-03T13:19:47;17.87;;;12.60;;
22963;SDS011;11648;49.306;6.934;2023-03-03T13:25:05;19.37;;;12.67;;
22963;SDS011;11648;49.306;6.934;2023-03-03T13:27:35;20.77;;;12.47;;
22963;SDS011;11648;49.306;6.934;2023-03-03T13:30:14;20.70;;;13.00;;
22963;SDS011;11648;49.306;6.934;2023-03-03T13:35:40;16.87;;;12.33;;
22963;SDS011;11648;49.306;6.934;2023-03-03T13:38:20;18.07;;;12.60;;
22963;SDS011;11648;49.306;6.934;2023-03-03T13:40:53;18.07;;;11.67;;
22963;SDS011;11648;49.306;6.934;2023-03-03T13:43:31;22.10;;;12.90;;
22963;SDS011;11648;49.306;6.934;2023-03-03T13:46:13;19.90;;;12.20;;
22963;SDS011;11648;49.306;6.934;2023-03-03T13:51:42;18.53;;;12.13;;
22963;SDS011;11648;49.306;6.934;2023-03-03T14:05:56;16.23;;;10.87;;
22963;SDS011;11648;49.306;6.934;2023-03-03T14:11:37;17.30;;;10.97;;
22963;SDS011;11648;49.306;6.934;2023-03-03T14:14:29;19.20;;;12.10;;
22963;SDS011;11648;49.306;6.934;2023-03-03T14:17:52;17.63;;;11.90;;
22963;SDS011;11648;49.306;6.934;2023-03-03T14:20:26;19.03;;;11.47;;
22963;SDS011;11648;49.306;6.934;2023-03-03T14:23:01;15.10;;;9.43;;
22963;SDS011;11648;49.306;6.934;2023-03-03T14:28:43;17.83;;;10.80;;
22963;SDS011;11648;49.306;6.934;2023-03-03T14:31:21;16.70;;;10.77;;
22963;SDS011;11648;49.306;6.934;2023-03-03T14:36:40;19.07;;;12.30;;
22963;SDS011;11648;49.306;6.934;2023-03-03T14:41:54;20.83;;;13.17;;
22963;SDS011;11648;49.306;6.934;2023-03-03T14:44:23;19.43;;;12.30;;
22963;SDS011;11648;49.306;6.934;2023-03-03T14:49:34;15.67;;;10.77;;
22963;SDS011;11648;49.306;6.934;2023-03-03T14:52:10;19.33;;;12.13;;
22963;SDS011;11648;49.306;6.934;2023-03-03T14:54:46;20.73;;;12.23;;
22963;SDS011;11648;49.306;6.934;2023-03-03T14:57:15;19.40;;;12.57;;
22963;SDS011;11648;49.306;6.934;2023-03-03T14:59:54;19.07;;;12.37;;
22963;SDS011;11648;49.306;6.934;2023-03-03T15:02:26;17.77;;;12.27;;
22963;SDS011;11648;49.306;6.934;2023-03-03T15:10:41;19.53;;;13.50;;
22963;SDS011;11648;49.306;6.934;2023-03-03T15:13:23;20.10;;;13.33;;
22963;SDS011;11648;49.306;6.934;2023-03-03T15:18:25;19.43;;;12.37;;
22963;SDS011;11648;49.306;6.934;2023-03-03T15:23:49;18.50;;;12.60;;
22963;SDS011;11648;49.306;6.934;2023-03-03T15:36:59;19.77;;;12.80;;
22963;SDS011;11648;49.306;6.934;2023-03-03T15:42:03;19.40;;;12.43;;
22963;SDS011;11648;49.306;6.934;2023-03-03T15:44:50;16.97;;;11.73;;
22963;SDS011;11648;49.306;6.934;2023-03-03T15:53:23;22.87;;;12.77;;
22963;SDS011;11648;49.306;6.934;2023-03-03T15:55:58;19.87;;;12.93;;
22963;SDS011;11648;49.306;6.934;2023-03-03T15:58:46;20.97;;;13.43;;
22963;SDS011;11648;49.306;6.934;2023-03-03T16:04:10;22.97;;;13.87;;
22963;SDS011;11648;49.306;6.934;2023-03-03T16:06:44;20.40;;;13.70;;
22963;SDS011;11648;49.306;6.934;2023-03-03T16:09:31;22.33;;;13.23;;
22963;SDS011;11648;49.306;6.934;2023-03-03T16:13:29;16.73;;;11.70;;
22963;SDS011;11648;49.306;6.934;2023-03-03T16:26:14;21.70;;;13.03;;
22963;SDS011;11648;49.306;6.934;2023-03-03T16:31:47;21.57;;;12.80;;
22963;SDS011;11648;49.306;6.934;2023-03-03T16:42:22;20.10;;;12.23;;
22963;SDS011;11648;49.306;6.934;2023-03-03T16:44:59;21.13;;;12.50;;
22963;SDS011;11648;49.306;6.934;2023-03-03T16:59:09;20.33;;;11.53;;
22963;SDS011;11648;49.306;6.934;2023-03-03T17:18:39;17.13;;;9.90;;
22963;SDS011;11648;49.306;6.934;2023-03-03T17:21:31;16.93;;;9.60;;
22963;SDS011;11648;49.306;6.934;2023-03-03T17:32:53;18.13;;;10.60;;
22963;SDS011;11648;49.306;6.934;2023-03-03T17:38:29;19.90;;;10.87;;
22963;SDS011;11648;49.306;6.934;2023-03-03T17:41:11;17.93;;;10.40;;
22963;SDS011;11648;49.306;6.934;2023-03-03T17:46:44;16.93;;;10.07;;
22963;SDS011;11648;49.306;6.934;2023-03-03T18:06:02;20.37;;;11.90;;
22963;SDS011;11648;49.306;6.934;2023-03-03T18:08:42;19.03;;;11.20;;
22963;SDS011;11648;49.306;6.934;2023-03-03T18:24:57;28.37;;;14.83;;
22963;SDS011;11648;49.306;6.934;2023-03-03T18:27:34;26.43;;;15.30;;
22963;SDS011;11648;49.306;6.934;2023-03-03T18:35:26;26.20;;;14.30;;
22963;SDS011;11648;49.306;6.934;2023-03-03T18:40:51;25.60;;;15.07;;
22963;SDS011;11648;49.306;6.934;2023-03-03T18:46:06;30.07;;;16.27;;
22963;SDS011;11648;49.306;6.934;2023-03-03T18:51:45;30.73;;;18.40;;
22963;SDS011;11648;49.306;6.934;2023-03-03T19:05:06;33.03;;;22.03;;
22963;SDS011;11648;49.306;6.934;2023-03-03T19:10:40;29.53;;;18.53;;
22963;SDS011;11648;49.306;6.934;2023-03-03T19:12:59;29.03;;;17.10;;
22963;SDS011;11648;49.306;6.934;2023-03-03T19:15:47;28.17;;;17.50;;
22963;SDS011;11648;49.306;6.934;2023-03-03T19:18:20;29.03;;;17.80;;
22963;SDS011;11648;49.306;6.934;2023-03-03T19:20:55;29.77;;;18.53;;
22963;SDS011;11648;49.306;6.934;2023-03-03T19:43:13;34.03;;;19.97;;
22963;SDS011;11648;49.306;6.934;2023-03-03T19:51:12;32.00;;;19.10;;
22963;SDS011;11648;49.306;6.934;2023-03-03T19:56:45;33.07;;;18.47;;
22963;SDS011;11648;49.306;6.934;2023-03-03T19:59:30;33.23;;;19.73;;
22963;SDS011;11648;49.306;6.934;2023-03-03T20:05:03;32.80;;;19.13;;
22963;SDS011;11648;49.306;6.934;2023-03-03T20:20:55;32.97;;;20.20;;
22963;SDS011;11648;49.306;6.934;2023-03-03T20:26:15;32.83;;;19.47;;
22963;SDS011;11648;49.306;6.934;2023-03-03T20:31:23;34.90;;;20.23;;
22963;SDS011;11648;49.306;6.934;2023-03-03T20:39:52;34.93;;;20.23;;
22963;SDS011;11648;49.306;6.934;2023-03-03T20:51:20;37.23;;;21.10;;
22963;SDS011;11648;49.306;6.934;2023-03-03T20:54:11;37.57;;;21.27;;
22963;SDS011;11648;49.306;6.934;2023-03-03T21:05:11;35.00;;;19.77;;
22963;SDS011;11648;49.306;6.934;2023-03-03T21:07:52;36.33;;;20.70;;
22963;SDS011;11648;49.306;6.934;2023-03-03T21:10:26;37.40;;;21.03;;
22963;SDS011;11648;49.306;6.934;2023-03-03T21:18:37;37.33;;;21.70;;
22963;SDS011;11648;49.306;6.934;2023-03-03T21:21:04;34.40;;;19.90;;
22963;SDS011;11648;49.306;6.934;2023-03-03T21:23:33;35.57;;;20.77;;
22963;SDS011;11648;49.306;6.934;2023-03-03T21:26:00;35.40;;;19.40;;
22963;SDS011;11648;49.306;6.934;2023-03-03T21:28:30;36.27;;;20.77;;
22963;SDS011;11648;49.306;6.934;2023-03-03T21:36:08;40.17;;;23.60;;
22963;SDS011;11648;49.306;6.934;2023-03-03T21:38:36;38.37;;;23.57;;
22963;SDS011;11648;49.306;6.934;2023-03-03T21:41:05;39.20;;;22.47;;
22963;SDS011;11648;49.306;6.934;2023-03-03T21:43:33;40.17;;;22.33;;
22963;SDS011;11648;49.306;6.934;2023-03-03T21:46:02;40.50;;;22.90;;
22963;SDS011;11648;49.306;6.934;2023-03-03T21:48:28;36.57;;;21.60;;
22963;SDS011;11648;49.306;6.934;2023-03-03T21:50:55;35.67;;;21.50;;
22963;SDS011;11648;49.306;6.934;2023-03-03T21:53:22;37.50;;;21.83;;
22963;SDS011;11648;49.306;6.934;2023-03-03T21:55:52;37.93;;;21.37;;
22963;SDS011;11648;49.306;6.934;2023-03-03T21:58:19;40.00;;;20.93;;
22963;SDS011;11648;49.306;6.934;2023-03-03T22:00:45;36.67;;;20.47;;
22963;SDS011;11648;49.306;6.934;2023-03-03T22:03:12;40.30;;;22.00;;
22963;SDS011;11648;49.306;6.934;2023-03-03T22:05:40;38.60;;;21.10;;
22963;SDS011;11648;49.306;6.934;2023-03-03T22:08:08;40.63;;;22.20;;